createdAt,value
2023-06-16T00:00:44.605Z,68.57
2023-06-16T00:03:17.355Z,67.94
2023-06-16T00:05:46.392Z,68.58
2023-06-16T00:08:13.448Z,68.36
2023-06-16T00:10:40.232Z,68.41
2023-06-16T00:13:06.913Z,68.43
2023-06-16T00:15:33.669Z,68.88
2023-06-16T00:18:01.246Z,68.30
2023-06-16T00:20:29.002Z,67.72
2023-06-16T00:22:56.150Z,67.35
2023-06-16T00:25:23.059Z,66.99
2023-06-16T00:27:49.762Z,67.14
2023-06-16T00:30:17.180Z,67.92
2023-06-16T00:32:45.069Z,67.70
2023-06-16T00:35:13.007Z,67.96
2023-06-16T00:37:39.654Z,67.66
2023-06-16T00:40:07.471Z,67.92
2023-06-16T00:42:35.016Z,66.71
2023-06-16T00:45:01.925Z,66.58
2023-06-16T00:47:28.909Z,66.94
2023-06-16T00:49:55.736Z,67.44
2023-06-16T00:52:29.190Z,67.88
2023-06-16T00:54:57.314Z,68.62
2023-06-16T00:57:24.232Z,68.42
2023-06-16T00:59:50.980Z,69.31
2023-06-16T01:02:19.849Z,69.14
2023-06-16T01:04:48.650Z,69.59
2023-06-16T01:07:22.545Z,69.71
2023-06-16T01:09:56.638Z,69.65
2023-06-16T01:12:41.785Z,68.94
2023-06-16T01:15:16.837Z,68.71
2023-06-16T01:17:46.897Z,67.65
2023-06-16T01:20:28.955Z,67.43
2023-06-16T01:23:15.884Z,67.23
2023-06-16T01:25:45.406Z,66.79
2023-06-16T01:28:20.366Z,66.82
2023-06-16T01:30:51.587Z,67.50
2023-06-16T01:33:22.108Z,67.15
2023-06-16T01:35:51.625Z,67.15
2023-06-16T01:38:19.998Z,66.94
2023-06-16T01:40:48.271Z,65.96
2023-06-16T01:43:16.077Z,66.21
2023-06-16T01:45:43.344Z,66.51
2023-06-16T01:48:10.388Z,67.07
2023-06-16T01:50:37.769Z,67.22
2023-06-16T01:53:04.511Z,66.73
2023-06-16T01:55:32.509Z,66.71
2023-06-16T01:57:59.475Z,66.83
2023-06-16T02:00:34.150Z,66.12
2023-06-16T02:03:08.335Z,66.29
2023-06-16T02:05:38.440Z,66.48
2023-06-16T02:08:09.149Z,66.63
2023-06-16T02:10:36.807Z,66.61
2023-06-16T02:13:03.703Z,66.39
2023-06-16T02:15:33.449Z,66.08
2023-06-16T02:18:00.653Z,66.24
2023-06-16T02:20:27.468Z,65.97
2023-06-16T02:22:54.843Z,66.08
2023-06-16T02:25:23.210Z,65.48
2023-06-16T02:27:50.166Z,65.65
2023-06-16T02:30:17.559Z,65.57
2023-06-16T02:32:57.051Z,65.71
2023-06-16T02:35:28.624Z,66.07
2023-06-16T02:37:55.823Z,65.93
2023-06-16T02:40:23.276Z,65.92
2023-06-16T02:42:50.063Z,66.27
2023-06-16T02:45:18.662Z,66.59
2023-06-16T02:47:46.326Z,66.43
2023-06-16T02:50:13.249Z,66.17
2023-06-16T02:52:42.420Z,66.73
2023-06-16T02:55:14.495Z,66.68
2023-06-16T02:57:46.702Z,66.25
2023-06-16T03:00:14.264Z,66.69
2023-06-16T03:03:01.191Z,66.16
2023-06-16T03:05:28.863Z,66.29
2023-06-16T03:07:56.439Z,65.68
2023-06-16T03:10:25.018Z,65.91
2023-06-16T03:13:16.505Z,66.17
2023-06-16T03:15:44.728Z,66.57
2023-06-16T03:18:12.496Z,66.71
2023-06-16T03:20:40.599Z,67.54
2023-06-16T03:23:17.728Z,67.17
2023-06-16T03:25:44.796Z,67.32
2023-06-16T03:28:14.773Z,67.07
2023-06-16T03:30:41.653Z,66.93
2023-06-16T03:33:10.919Z,66.70
2023-06-16T03:35:39.983Z,65.92
2023-06-16T03:38:13.180Z,66.07
2023-06-16T03:40:42.853Z,66.50
2023-06-16T03:43:10.306Z,66.10
2023-06-16T03:45:37.274Z,65.80
2023-06-16T03:48:06.480Z,65.96
2023-06-16T03:50:42.796Z,64.80
2023-06-16T03:53:16.803Z,64.82
2023-06-16T03:55:45.317Z,65.59
2023-06-16T03:58:14.566Z,65.41
2023-06-16T04:00:41.570Z,65.52
2023-06-16T04:03:09.569Z,66.02
2023-06-16T04:05:36.862Z,66.41
2023-06-16T04:08:05.288Z,65.88
2023-06-16T04:10:34.651Z,65.95
2023-06-16T04:13:01.533Z,66.14
2023-06-16T04:15:32.103Z,66.11
2023-06-16T04:17:59.474Z,66.18
2023-06-16T04:20:26.139Z,66.26
2023-06-16T04:22:53.206Z,66.35
2023-06-16T04:25:22.896Z,66.44
2023-06-16T04:27:52.930Z,67.06
2023-06-16T04:30:25.485Z,68.16
2023-06-16T04:32:56.084Z,68.60
2023-06-16T04:35:23.679Z,68.12
2023-06-16T04:37:51.092Z,66.95
2023-06-16T04:40:18.387Z,67.54
2023-06-16T04:42:45.227Z,68.71
2023-06-16T04:45:12.467Z,68.20
2023-06-16T04:47:43.952Z,68.58
2023-06-16T04:50:11.429Z,68.60
2023-06-16T04:52:39.014Z,68.68
2023-06-16T04:55:06.153Z,68.58
2023-06-16T04:57:33.815Z,66.63
2023-06-16T05:00:01.420Z,66.60
2023-06-16T05:02:28.782Z,66.33
2023-06-16T05:04:57.354Z,66.92
2023-06-16T05:07:24.087Z,68.47
2023-06-16T05:09:50.833Z,68.95
2023-06-16T05:12:17.659Z,69.19
2023-06-16T05:14:45.517Z,69.40
2023-06-16T05:17:12.442Z,69.43
2023-06-16T05:19:40.640Z,69.84
2023-06-16T05:22:07.846Z,69.57
2023-06-16T05:24:36.167Z,69.20
2023-06-16T05:27:04.366Z,69.49
2023-06-16T05:29:32.753Z,69.19
2023-06-16T05:32:00.208Z,69.21
2023-06-16T05:34:27.181Z,68.30
2023-06-16T05:36:54.340Z,68.53
2023-06-16T05:39:23.521Z,69.20
2023-06-16T05:41:50.214Z,69.10
2023-06-16T05:44:18.860Z,67.79
2023-06-16T05:46:45.826Z,68.54
2023-06-16T05:49:16.746Z,67.56
2023-06-16T05:51:43.539Z,67.09
2023-06-16T05:54:10.305Z,67.83
2023-06-16T05:56:37.694Z,68.37
2023-06-16T05:59:05.076Z,68.38
2023-06-16T06:01:33.772Z,68.49
2023-06-16T06:04:00.863Z,69.48
2023-06-16T06:06:29.192Z,68.63
2023-06-16T06:08:56.452Z,68.92
2023-06-16T06:11:23.414Z,68.92
2023-06-16T06:13:50.511Z,68.86
2023-06-16T06:16:17.327Z,69.23
2023-06-16T06:18:48.694Z,69.08
2023-06-16T06:21:16.190Z,69.59
2023-06-16T06:23:42.902Z,69.25
2023-06-16T06:26:10.293Z,69.49
2023-06-16T06:28:37.051Z,69.97
2023-06-16T06:31:03.983Z,70.60
2023-06-16T06:33:32.804Z,70.72
2023-06-16T06:35:59.812Z,69.22
2023-06-16T06:38:27.308Z,68.58
2023-06-16T06:40:54.938Z,67.62
2023-06-16T06:43:21.910Z,67.46
2023-06-16T06:45:54.182Z,66.18
2023-06-16T06:48:21.700Z,66.19
2023-06-16T06:50:52.948Z,65.09
2023-06-16T06:53:20.190Z,65.82
2023-06-16T06:55:47.090Z,65.53
2023-06-16T06:58:13.832Z,63.96
2023-06-16T07:00:40.584Z,63.31
2023-06-16T07:03:07.520Z,59.35
2023-06-16T07:05:35.306Z,59.75
2023-06-16T07:08:05.315Z,59.63
2023-06-16T07:10:33.935Z,60.57
2023-06-16T07:13:00.852Z,61.66
2023-06-16T07:15:27.578Z,61.36
2023-06-16T07:17:54.310Z,61.17
2023-06-16T07:20:21.526Z,63.47
2023-06-16T07:22:48.516Z,66.23
2023-06-16T07:25:16.984Z,64.26
2023-06-16T07:27:44.325Z,64.88
2023-06-16T07:30:12.062Z,64.82
2023-06-16T07:32:40.972Z,62.87
2023-06-16T07:35:09.760Z,63.73
2023-06-16T07:37:36.601Z,62.45
2023-06-16T07:40:07.869Z,64.10
2023-06-16T07:42:34.634Z,61.89
2023-06-16T07:45:01.222Z,61.07
2023-06-16T07:47:27.991Z,61.61
2023-06-16T07:49:54.600Z,62.40
2023-06-16T07:52:21.380Z,60.82
2023-06-16T07:54:48.284Z,60.13
2023-06-16T07:57:15.050Z,60.54
2023-06-16T07:59:41.747Z,60.39
2023-06-16T08:02:08.524Z,60.29
2023-06-16T08:04:35.345Z,58.91
2023-06-16T08:07:03.429Z,58.42
2023-06-16T08:09:30.227Z,58.87
2023-06-16T08:11:57.063Z,58.63
2023-06-16T08:14:23.722Z,58.96
2023-06-16T08:16:50.497Z,58.03
2023-06-16T08:19:17.164Z,54.45
2023-06-16T08:21:43.813Z,53.92
2023-06-16T08:24:10.915Z,57.22
2023-06-16T08:26:39.702Z,57.93
2023-06-16T08:29:07.797Z,56.44
2023-06-16T08:31:34.715Z,56.48
2023-06-16T08:34:02.313Z,57.23
2023-06-16T08:36:29.553Z,53.87
2023-06-16T08:38:56.343Z,56.41
2023-06-16T08:41:24.430Z,57.62
2023-06-16T08:43:51.958Z,59.31
2023-06-16T08:46:18.867Z,59.91
2023-06-16T08:48:46.543Z,58.43
2023-06-16T08:51:17.857Z,58.74
2023-06-16T08:53:47.715Z,56.74
2023-06-16T08:56:19.221Z,57.75
2023-06-16T08:58:48.421Z,57.33
2023-06-16T09:01:16.085Z,54.35
2023-06-16T09:03:49.108Z,55.60
2023-06-16T09:06:16.466Z,56.69
2023-06-16T09:08:43.169Z,57.69
2023-06-16T09:11:09.997Z,56.34
2023-06-16T09:13:43.154Z,56.44
2023-06-16T09:16:10.512Z,55.21
2023-06-16T09:18:42.562Z,56.35
2023-06-16T09:21:09.655Z,56.00
2023-06-16T09:23:36.758Z,53.62
2023-06-16T09:26:16.387Z,54.87
2023-06-16T09:28:45.357Z,51.10
2023-06-16T09:31:16.276Z,54.13
2023-06-16T09:33:43.593Z,52.65
2023-06-16T09:36:11.097Z,53.22
2023-06-16T09:38:39.241Z,53.61
2023-06-16T09:41:10.250Z,55.23
2023-06-16T09:43:41.033Z,50.98
2023-06-16T09:46:10.492Z,51.91
2023-06-16T09:48:48.860Z,55.33
2023-06-16T09:51:24.225Z,52.42
2023-06-16T09:53:53.094Z,54.09
2023-06-16T09:56:20.694Z,52.97
2023-06-16T09:58:48.757Z,51.81
2023-06-16T10:01:17.165Z,55.86
2023-06-16T10:03:49.086Z,54.09
2023-06-16T10:06:20.218Z,52.27
2023-06-16T10:08:51.020Z,51.65
2023-06-16T10:11:19.533Z,51.45
2023-06-16T10:13:52.714Z,51.47
2023-06-16T10:16:24.874Z,52.99
2023-06-16T10:18:54.675Z,54.88
2023-06-16T10:21:23.847Z,51.78
2023-06-16T10:23:52.076Z,50.48
2023-06-16T10:26:19.967Z,49.11
2023-06-16T10:28:47.304Z,49.08
2023-06-16T10:31:15.624Z,48.95
2023-06-16T10:33:56.201Z,50.82
2023-06-16T10:36:25.022Z,49.43
2023-06-16T10:38:57.651Z,51.57
2023-06-16T10:41:25.387Z,50.40
2023-06-16T10:43:52.170Z,52.92
2023-06-16T10:46:21.717Z,50.60
2023-06-16T10:49:06.506Z,51.46
2023-06-16T10:51:49.833Z,49.22
2023-06-16T10:54:49.466Z,44.43
2023-06-16T10:57:16.435Z,46.16
2023-06-16T11:00:13.550Z,46.01
2023-06-16T11:02:58.516Z,46.27
2023-06-16T11:05:40.386Z,45.51
2023-06-16T11:08:15.024Z,44.80
2023-06-16T11:10:49.359Z,46.21
2023-06-16T11:13:17.668Z,44.54
2023-06-16T11:15:44.943Z,46.33
2023-06-16T11:18:13.640Z,47.15
2023-06-16T11:20:41.394Z,47.90
2023-06-16T11:23:09.131Z,41.88
2023-06-16T11:25:40.158Z,39.72
2023-06-16T11:28:07.324Z,37.19
2023-06-16T11:30:36.853Z,38.40
2023-06-16T11:33:04.426Z,37.27
2023-06-16T11:35:34.700Z,36.98
2023-06-16T11:38:01.857Z,36.80
2023-06-16T11:40:31.387Z,32.21
2023-06-16T11:43:01.033Z,35.61
2023-06-16T11:45:30.315Z,36.94
2023-06-16T11:47:58.845Z,35.05
2023-06-16T11:50:26.702Z,33.69
2023-06-16T11:52:54.167Z,38.07
2023-06-16T11:55:21.383Z,40.10
2023-06-16T11:57:48.381Z,40.79
2023-06-16T12:00:16.529Z,40.74
2023-06-16T12:02:46.720Z,41.33
2023-06-16T12:05:25.528Z,41.02
2023-06-16T12:07:52.333Z,39.30
2023-06-16T12:10:19.473Z,40.30
2023-06-16T12:12:48.437Z,43.24
2023-06-16T12:15:20.107Z,41.96
2023-06-16T12:17:48.780Z,41.53
2023-06-16T12:20:18.535Z,42.09
2023-06-16T12:22:46.149Z,42.33
2023-06-16T12:25:17.633Z,43.53
2023-06-16T12:27:50.737Z,40.14
2023-06-16T12:30:18.575Z,37.98
2023-06-16T12:32:46.735Z,38.60
2023-06-16T12:35:23.332Z,39.70
2023-06-16T12:37:50.152Z,38.60
2023-06-16T12:40:18.217Z,40.05
2023-06-16T12:42:45.468Z,34.86
2023-06-16T12:45:14.493Z,34.94
2023-06-16T12:47:41.681Z,36.91
2023-06-16T12:50:08.793Z,38.01
2023-06-16T12:52:35.588Z,37.40
2023-06-16T12:55:04.809Z,36.17
2023-06-16T12:57:31.558Z,36.68
2023-06-16T12:59:58.268Z,37.16
2023-06-16T13:02:25.016Z,37.08
2023-06-16T13:04:51.996Z,38.14
2023-06-16T13:07:18.984Z,39.08
2023-06-16T13:09:45.729Z,39.21
2023-06-16T13:12:13.211Z,41.84
2023-06-16T13:14:40.874Z,37.65
2023-06-16T13:17:07.828Z,37.68
2023-06-16T13:19:34.549Z,38.60
2023-06-16T13:22:02.464Z,36.83
2023-06-16T13:24:30.356Z,36.71
2023-06-16T13:26:57.331Z,36.33
2023-06-16T13:29:23.964Z,36.78
2023-06-16T13:31:50.856Z,36.65
2023-06-16T13:34:17.504Z,36.52
2023-06-16T13:36:44.320Z,37.80
2023-06-16T13:39:12.025Z,36.35
2023-06-16T13:41:38.979Z,34.30
2023-06-16T13:44:05.810Z,37.85
2023-06-16T13:46:32.869Z,35.06
2023-06-16T13:48:59.555Z,35.99
2023-06-16T13:51:26.512Z,35.84
2023-06-16T13:53:53.270Z,36.18
2023-06-16T13:56:21.831Z,34.88
2023-06-16T13:58:48.480Z,34.68
2023-06-16T14:01:15.410Z,33.98
2023-06-16T14:03:42.287Z,33.78
2023-06-16T14:06:09.135Z,33.25
2023-06-16T14:08:35.975Z,34.18
2023-06-16T14:11:02.747Z,35.33
2023-06-16T14:13:29.409Z,36.05
2023-06-16T14:15:56.161Z,35.25
2023-06-16T14:18:22.907Z,34.83
2023-06-16T14:20:50.028Z,34.99
2023-06-16T14:23:16.808Z,34.76
2023-06-16T14:25:47.359Z,35.24
2023-06-16T14:28:15.264Z,35.16
2023-06-16T14:30:42.531Z,34.62
2023-06-16T14:33:11.201Z,35.94
2023-06-16T14:35:38.205Z,35.73
2023-06-16T14:38:05.152Z,35.27
2023-06-16T14:40:32.377Z,35.26
2023-06-16T14:42:59.542Z,34.61
2023-06-16T14:45:26.269Z,35.06
2023-06-16T14:47:53.072Z,34.07
2023-06-16T14:50:20.386Z,34.29
2023-06-16T14:52:47.549Z,34.09
2023-06-16T14:55:14.457Z,35.66
2023-06-16T14:57:41.582Z,34.17
2023-06-16T15:00:08.986Z,33.39
2023-06-16T15:02:36.126Z,33.59
2023-06-16T15:05:03.050Z,34.04
2023-06-16T15:07:29.779Z,35.10
2023-06-16T15:09:56.575Z,33.87
2023-06-16T15:12:23.304Z,32.82
2023-06-16T15:14:49.903Z,34.33
2023-06-16T15:17:16.628Z,33.41
2023-06-16T15:19:43.473Z,32.96
2023-06-16T15:22:10.237Z,32.73
2023-06-16T15:24:37.407Z,33.01
2023-06-16T15:27:04.587Z,34.52
2023-06-16T15:29:31.390Z,32.80
2023-06-16T15:31:58.154Z,33.88
2023-06-16T15:34:25.080Z,32.34
2023-06-16T15:36:52.175Z,33.30
2023-06-16T15:39:19.901Z,32.82
2023-06-16T15:41:46.963Z,32.59
2023-06-16T15:44:14.007Z,31.49
2023-06-16T15:46:41.093Z,33.40
2023-06-16T15:49:07.766Z,33.10
2023-06-16T15:51:34.672Z,32.45
2023-06-16T15:54:01.368Z,32.46
2023-06-16T15:56:28.241Z,32.97
2023-06-16T15:58:54.878Z,32.32
2023-06-16T16:01:21.696Z,32.43
2023-06-16T16:03:48.597Z,33.27
2023-06-16T16:06:15.641Z,32.52
2023-06-16T16:08:42.411Z,34.17
2023-06-16T16:11:09.934Z,32.31
2023-06-16T16:13:36.980Z,33.11
2023-06-16T16:16:03.961Z,33.70
2023-06-16T16:18:30.914Z,33.37
2023-06-16T16:20:57.806Z,34.64
2023-06-16T16:23:24.576Z,34.56
2023-06-16T16:25:51.251Z,35.38
2023-06-16T16:28:20.869Z,35.26
2023-06-16T16:30:47.695Z,34.89
2023-06-16T16:33:14.508Z,34.39
2023-06-16T16:35:41.644Z,34.94
2023-06-16T16:38:08.354Z,33.33
2023-06-16T16:40:35.050Z,34.76
2023-06-16T16:43:02.364Z,34.68
2023-06-16T16:45:29.403Z,34.73
2023-06-16T16:47:56.319Z,35.37
2023-06-16T16:50:23.342Z,36.67
2023-06-16T16:52:50.176Z,36.42
2023-06-16T16:55:34.437Z,35.68
2023-06-16T16:58:03.050Z,37.11
2023-06-16T17:00:29.757Z,37.43
2023-06-16T17:02:56.546Z,36.22
2023-06-16T17:05:23.502Z,37.18
2023-06-16T17:07:50.720Z,36.60
2023-06-16T17:10:18.097Z,37.92
2023-06-16T17:12:45.100Z,38.09
2023-06-16T17:15:11.814Z,38.22
2023-06-16T17:17:38.692Z,37.41
2023-06-16T17:20:06.564Z,37.52
2023-06-16T17:22:33.295Z,38.52
2023-06-16T17:24:59.946Z,39.05
2023-06-16T17:27:26.675Z,38.14
2023-06-16T17:29:53.363Z,38.93
2023-06-16T17:32:20.142Z,41.16
2023-06-16T17:34:46.873Z,41.76
2023-06-16T17:37:13.621Z,41.52
2023-06-16T17:39:40.302Z,41.86
2023-06-16T17:42:07.157Z,43.74
2023-06-16T17:44:33.836Z,44.18
2023-06-16T17:47:01.289Z,44.49
2023-06-16T17:49:28.577Z,45.63
2023-06-16T17:51:57.738Z,46.54
2023-06-16T17:54:24.395Z,46.96
2023-06-16T17:56:51.696Z,46.17
2023-06-16T17:59:18.502Z,47.03
2023-06-16T18:01:45.460Z,46.86
2023-06-16T18:04:12.363Z,46.81
2023-06-16T18:06:39.137Z,47.18
2023-06-16T18:09:06.009Z,46.91
2023-06-16T18:11:32.966Z,47.92
2023-06-16T18:14:00.279Z,47.82
2023-06-16T18:16:26.983Z,47.22
2023-06-16T18:18:53.719Z,48.03
2023-06-16T18:21:20.468Z,48.72
2023-06-16T18:23:47.209Z,48.94
2023-06-16T18:26:14.046Z,49.71
2023-06-16T18:28:40.736Z,47.31
2023-06-16T18:31:07.525Z,48.22
2023-06-16T18:33:34.313Z,47.44
2023-06-16T18:36:01.042Z,47.49
2023-06-16T18:38:27.743Z,47.39
2023-06-16T18:40:54.538Z,46.62
2023-06-16T18:43:25.446Z,47.20
2023-06-16T18:45:54.780Z,46.95
2023-06-16T18:48:22.072Z,46.23
2023-06-16T18:50:48.907Z,46.36
2023-06-16T18:53:15.631Z,45.77
2023-06-16T18:55:44.867Z,45.86
2023-06-16T18:58:11.739Z,45.78
2023-06-16T19:00:38.671Z,45.27
2023-06-16T19:03:06.104Z,46.05
2023-06-16T19:05:33.565Z,46.24
2023-06-16T19:08:00.838Z,46.52
2023-06-16T19:10:27.818Z,46.57
2023-06-16T19:12:54.596Z,46.25
2023-06-16T19:15:23.447Z,46.33
2023-06-16T19:17:51.294Z,45.86
2023-06-16T19:20:18.788Z,45.84
2023-06-16T19:22:46.024Z,46.44
2023-06-16T19:25:12.893Z,46.41
2023-06-16T19:27:39.871Z,46.52
2023-06-16T19:30:07.787Z,45.52
2023-06-16T19:32:35.798Z,45.95
2023-06-16T19:35:03.161Z,47.14
2023-06-16T19:37:34.211Z,45.45
2023-06-16T19:40:01.135Z,44.97
2023-06-16T19:42:27.969Z,45.98
2023-06-16T19:44:56.694Z,45.47
2023-06-16T19:47:25.179Z,45.90
2023-06-16T19:49:52.136Z,45.44
2023-06-16T19:52:19.032Z,45.85
2023-06-16T19:54:45.884Z,45.18
2023-06-16T19:57:13.336Z,44.81
2023-06-16T19:59:40.604Z,43.89
2023-06-16T20:02:07.782Z,44.94
2023-06-16T20:04:35.416Z,44.64
2023-06-16T20:07:02.508Z,43.68
2023-06-16T20:09:29.242Z,43.39
2023-06-16T20:11:56.382Z,43.30
2023-06-16T20:14:23.325Z,42.95
2023-06-16T20:16:50.136Z,43.31
2023-06-16T20:19:16.861Z,42.96
2023-06-16T20:21:43.510Z,42.51
2023-06-16T20:24:12.187Z,44.27
2023-06-16T20:26:39.903Z,43.14
2023-06-16T20:29:06.933Z,43.38
2023-06-16T20:31:34.517Z,42.49
2023-06-16T20:34:01.705Z,42.71
2023-06-16T20:36:28.614Z,43.04
2023-06-16T20:38:55.248Z,42.75
2023-06-16T20:41:29.350Z,43.25
2023-06-16T20:43:56.808Z,44.15
2023-06-16T20:46:24.454Z,44.88
2023-06-16T20:48:51.393Z,43.79
2023-06-16T20:51:18.419Z,43.17
2023-06-16T20:53:46.994Z,43.05
2023-06-16T20:56:14.121Z,44.76
2023-06-16T20:58:40.831Z,45.31
2023-06-16T21:01:09.313Z,43.64
2023-06-16T21:03:36.147Z,43.00
2023-06-16T21:06:02.936Z,44.79
2023-06-16T21:08:33.504Z,45.81
2023-06-16T21:11:01.200Z,44.68
2023-06-16T21:13:29.060Z,43.49
2023-06-16T21:16:01.835Z,44.32
2023-06-16T21:18:32.592Z,45.10
2023-06-16T21:20:59.888Z,43.86
2023-06-16T21:23:26.647Z,44.72
2023-06-16T21:25:53.385Z,45.72
2023-06-16T21:28:20.042Z,45.48
2023-06-16T21:30:46.862Z,45.42
2023-06-16T21:33:13.516Z,43.21
2023-06-16T21:35:40.197Z,43.66
2023-06-16T21:38:08.606Z,44.23
2023-06-16T21:40:37.422Z,44.91
2023-06-16T21:43:04.093Z,45.11
2023-06-16T21:45:30.874Z,44.35
2023-06-16T21:47:57.538Z,45.25
2023-06-16T21:50:24.679Z,45.00
2023-06-16T21:52:51.934Z,45.41
2023-06-16T21:55:18.881Z,45.31
2023-06-16T21:57:45.555Z,45.64
2023-06-16T22:00:12.988Z,45.94
2023-06-16T22:02:40.668Z,46.30
2023-06-16T22:05:09.024Z,47.29
2023-06-16T22:07:37.018Z,47.59
2023-06-16T22:10:04.716Z,48.07
2023-06-16T22:12:31.956Z,48.03
2023-06-16T22:14:59.671Z,48.30
2023-06-16T22:17:27.346Z,48.04
2023-06-16T22:19:54.323Z,48.05
2023-06-16T22:22:23.120Z,46.40
2023-06-16T22:24:49.840Z,46.17
2023-06-16T22:27:21.785Z,47.79
2023-06-16T22:29:50.025Z,48.55
2023-06-16T22:32:17.012Z,46.28
2023-06-16T22:34:44.352Z,46.02
2023-06-16T22:37:13.857Z,45.71
2023-06-16T22:39:42.308Z,45.69
2023-06-16T22:42:08.966Z,45.80
2023-06-16T22:44:35.821Z,46.12
2023-06-16T22:47:02.729Z,45.67
2023-06-16T22:49:30.220Z,46.86
2023-06-16T22:52:00.436Z,47.10
2023-06-16T22:54:28.861Z,47.01
2023-06-16T22:56:56.098Z,46.64
2023-06-16T22:59:23.495Z,47.76
2023-06-16T23:01:50.590Z,47.79
2023-06-16T23:04:17.586Z,48.90
2023-06-16T23:06:46.236Z,48.88
2023-06-16T23:09:12.999Z,49.01
2023-06-16T23:11:39.684Z,48.11
2023-06-16T23:14:06.564Z,48.06
2023-06-16T23:16:34.719Z,47.52
2023-06-16T23:19:02.059Z,48.04
2023-06-16T23:21:29.091Z,48.88
2023-06-16T23:23:57.305Z,48.52
2023-06-16T23:26:24.416Z,48.69
2023-06-16T23:28:51.445Z,47.78
2023-06-16T23:31:20.026Z,47.28
2023-06-16T23:33:47.966Z,47.91
2023-06-16T23:36:17.921Z,48.09
2023-06-16T23:38:49.512Z,48.97
2023-06-16T23:41:16.450Z,46.54
2023-06-16T23:43:43.103Z,45.80
2023-06-16T23:46:09.818Z,45.92
2023-06-16T23:48:36.427Z,45.87
2023-06-16T23:51:03.244Z,45.72
2023-06-16T23:53:31.375Z,47.27
2023-06-16T23:55:58.293Z,46.14
2023-06-16T23:58:26.095Z,47.19
